Time;durP1;ratioP1;P1;durP2;ratioP2;P2;SDS_P1;SDS_P2;PMS_P1;PMS_P2;Temp;Humidity;BMP_temperature;BMP_pressure;BME280_temperature;BME280_humidity;BME280_pressure;Samples;Min_cycle;Max_cycle;Signal;HPM_P1;HPM_P2
2022/01/21 00:00:47;;;;;;;22.83;2.95;;;-1.90;99.90;;;;;;5055382;28;20083;-69
2022/01/21 00:03:13;;;;;;;14.98;3.40;;;-1.90;99.90;;;;;;5055335;28;20017;-69
2022/01/21 00:05:39;;;;;;;25.23;2.67;;;-1.90;99.90;;;;;;5055963;28;20470;-69
2022/01/21 00:08:04;;;;;;;27.60;3.92;;;-1.90;99.90;;;;;;5055574;28;20029;-69
2022/01/21 00:10:30;;;;;;;22.40;2.80;;;-2.00;99.90;;;;;;5055866;28;20547;-69
2022/01/21 00:12:57;;;;;;;19.60;3.17;;;-2.00;99.90;;;;;;5055248;28;20392;-69
2022/01/21 00:15:22;;;;;;;21.75;3.83;;;-2.00;99.90;;;;;;5055255;28;20039;-69
2022/01/21 00:17:48;;;;;;;24.17;2.60;;;-2.10;99.90;;;;;;5055055;28;20021;-69
2022/01/21 00:31:10;;;;;;;15.10;2.47;;;-2.30;99.90;;;;;;5055166;28;20054;-69
2022/01/21 00:33:36;;;;;;;14.98;2.80;;;-2.40;99.90;;;;;;5054828;28;20430;-69
2022/01/21 00:36:03;;;;;;;19.38;2.90;;;-2.30;99.90;;;;;;5054964;28;20021;-69
2022/01/21 00:38:30;;;;;;;20.77;3.42;;;-2.30;99.90;;;;;;5055000;28;20028;-69
2022/01/21 00:40:59;;;;;;;15.27;3.10;;;-2.20;99.90;;;;;;5054943;28;20025;-69
2022/01/21 00:43:32;;;;;;;20.40;4.30;;;-2.20;99.90;;;;;;5054573;28;20013;-69
2022/01/21 00:45:59;;;;;;;22.30;3.17;;;-2.10;99.90;;;;;;5054637;28;20483;-69
2022/01/21 00:48:26;;;;;;;26.45;3.38;;;-2.00;99.90;;;;;;5055109;28;20381;-69
2022/01/21 00:50:52;;;;;;;24.95;4.05;;;-2.00;99.90;;;;;;5054966;28;20028;-69
2022/01/21 00:53:18;;;;;;;33.40;4.18;;;-1.90;99.90;;;;;;5054436;28;20025;-69
2022/01/21 00:55:43;;;;;;;40.17;3.85;;;-1.90;99.90;;;;;;5054330;28;20031;-69
2022/01/21 00:58:09;;;;;;;18.42;2.83;;;-1.60;99.90;;;;;;5054374;28;20476;-69
2022/01/21 01:00:36;;;;;;;23.63;2.65;;;-1.50;99.90;;;;;;5035567;28;20021;-69
2022/01/21 01:03:03;;;;;;;11.70;2.55;;;-1.30;99.90;;;;;;5054242;28;20017;-69
2022/01/21 01:05:29;;;;;;;18.92;3.10;;;-1.00;99.90;;;;;;5054470;28;20032;-69
2022/01/21 01:07:55;;;;;;;20.77;3.47;;;-0.90;99.90;;;;;;5054327;28;20029;-69
2022/01/21 01:10:38;;;;;;;29.75;3.90;;;-0.80;99.90;;;;;;5054083;28;20017;-69
2022/01/21 01:21:16;;;;;;;;;;;-0.50;99.90;;;;;;5054295;28;20504;-69
2022/01/21 01:29:11;;;;;;;30.60;3.60;;;-0.20;99.90;;;;;;5054090;28;20151;-69
2022/01/21 01:31:36;;;;;;;21.45;3.33;;;-0.20;99.90;;;;;;5053690;28;20123;-69
2022/01/21 01:34:03;;;;;;;24.85;2.92;;;-0.20;99.90;;;;;;5054229;28;20029;-69
2022/01/21 01:36:29;;;;;;;24.20;3.13;;;-0.40;99.90;;;;;;5053498;28;20116;-69
2022/01/21 01:41:35;;;;;;;15.48;2.72;;;-0.30;99.90;;;;;;5053556;28;20040;-69
2022/01/21 01:49:37;;;;;;;45.65;10.45;;;0.10;99.90;;;;;;5013538;28;20099;-67
2022/01/21 01:52:04;;;;;;;;;;;0.20;99.90;;;;;;5014496;28;20032;-67
2022/01/21 01:54:32;;;;;;;57.53;6.72;;;0.20;99.90;;;;;;5013862;28;19958;-66
2022/01/21 01:56:58;;;;;;;26.92;3.50;;;0.30;99.90;;;;;;5013702;28;20076;-67
2022/01/21 01:59:25;;;;;;;22.20;2.40;;;0.50;99.90;;;;;;5014077;28;20029;-66
2022/01/21 02:01:59;;;;;;;35.55;3.05;;;0.70;99.90;;;;;;5013536;28;20425;-66
2022/01/21 02:04:25;;;;;;;29.08;4.30;;;0.90;99.90;;;;;;5014008;28;20021;-66
2022/01/21 02:06:51;;;;;;;22.10;3.10;;;1.10;99.90;;;;;;5013625;28;20394;-66
2022/01/21 02:09:17;;;;;;;26.30;3.15;;;1.30;99.90;;;;;;5013621;28;20026;-66
2022/01/21 02:11:43;;;;;;;24.55;4.22;;;1.40;99.90;;;;;;5013681;28;20042;-67
2022/01/21 02:14:14;;;;;;;20.90;2.88;;;1.50;99.90;;;;;;5013824;28;20037;-67
2022/01/21 02:17:10;;;;;;;36.83;3.13;;;1.60;99.90;;;;;;5013550;28;20478;-66
2022/01/21 02:22:24;;;;;;;21.67;3.83;;;1.60;99.90;;;;;;5013502;28;20080;-66
2022/01/21 02:27:15;;;;;;;23.88;3.13;;;1.80;99.90;;;;;;5013622;28;20448;-66
2022/01/21 02:29:50;;;;;;;26.27;4.45;;;1.90;99.90;;;;;;5013680;28;20032;-66
2022/01/21 02:32:18;;;;;;;20.17;3.30;;;1.90;99.90;;;;;;5014037;28;20437;-66
2022/01/21 02:34:45;;;;;;;23.48;2.95;;;1.90;99.90;;;;;;5013389;28;20046;-67
2022/01/21 02:37:13;;;;;;;24.70;3.30;;;1.90;99.90;;;;;;5013627;28;20442;-66
2022/01/21 02:39:39;;;;;;;26.48;3.13;;;2.00;99.90;;;;;;5013630;28;20109;-66
2022/01/21 02:42:05;;;;;;;24.80;3.22;;;2.10;99.90;;;;;;5013455;28;20105;-67
2022/01/21 02:44:31;;;;;;;31.50;2.75;;;2.00;99.90;;;;;;5013322;28;20032;-67
2022/01/21 02:46:59;;;;;;;24.65;3.17;;;2.00;99.90;;;;;;5013284;28;20025;-67
2022/01/21 02:49:25;;;;;;;23.73;2.60;;;1.90;99.90;;;;;;5013531;28;20045;-66
2022/01/21 02:51:52;;;;;;;23.23;3.58;;;1.90;99.90;;;;;;5013236;28;20049;-66
2022/01/21 02:54:18;;;;;;;20.88;2.88;;;1.90;99.90;;;;;;5013205;28;20022;-66
2022/01/21 02:56:44;;;;;;;25.85;3.72;;;1.90;99.90;;;;;;5013121;28;20033;-66
2022/01/21 02:59:11;;;;;;;29.98;3.92;;;1.90;99.90;;;;;;5013087;28;20036;-66
2022/01/21 03:01:38;;;;;;;21.17;3.22;;;1.80;99.90;;;;;;5013046;28;20397;-66
2022/01/21 03:04:05;;;;;;;25.88;3.08;;;1.70;99.90;;;;;;5013110;28;20022;-67
2022/01/21 03:06:32;;;;;;;17.35;2.60;;;1.70;99.90;;;;;;5013011;28;20025;-67
2022/01/21 03:08:59;;;;;;;18.05;2.40;;;1.50;99.90;;;;;;5013273;28;20033;-66
2022/01/21 03:11:26;;;;;;;21.75;3.05;;;1.50;99.90;;;;;;5013270;28;20034;-66
2022/01/21 03:13:52;;;;;;;25.55;3.25;;;1.40;99.90;;;;;;5012968;28;20029;-66
2022/01/21 03:16:18;;;;;;;20.58;2.15;;;1.30;99.90;;;;;;5012976;28;20080;-66
2022/01/21 03:18:44;;;;;;;29.38;3.03;;;1.20;99.90;;;;;;5013148;28;20026;-66
2022/01/21 03:21:15;;;;;;;23.67;2.40;;;1.10;99.90;;;;;;5012864;28;20061;-66
2022/01/21 03:23:46;;;;;;;21.80;3.60;;;1.00;99.90;;;;;;5014106;28;20417;-66
2022/01/21 03:26:14;;;;;;;20.65;2.55;;;1.00;99.90;;;;;;5017160;28;20072;-67
2022/01/21 03:28:40;;;;;;;17.92;2.00;;;0.90;99.90;;;;;;5016348;28;20029;-66
2022/01/21 03:31:06;;;;;;;10.50;2.95;;;0.90;99.90;;;;;;5016346;28;20034;-66
2022/01/21 03:33:32;;;;;;;13.90;1.83;;;0.90;99.90;;;;;;5016369;28;20080;-66
2022/01/21 03:35:57;;;;;;;7.35;2.35;;;0.90;99.90;;;;;;5016363;28;20105;-66
2022/01/21 03:38:27;;;;;;;8.35;1.90;;;0.90;99.90;;;;;;5016427;28;20472;-66
2022/01/21 03:40:54;;;;;;;14.27;3.10;;;0.90;99.90;;;;;;5016711;28;20026;-66
2022/01/21 03:43:21;;;;;;;18.00;2.83;;;0.80;99.90;;;;;;5016178;28;20022;-66
2022/01/21 03:45:47;;;;;;;10.85;1.50;;;0.80;99.90;;;;;;5016485;28;20022;-66
2022/01/21 03:48:13;;;;;;;12.05;1.85;;;0.80;99.90;;;;;;5015961;28;20044;-66
2022/01/21 03:50:39;;;;;;;22.65;1.90;;;0.80;99.90;;;;;;5016319;28;20488;-66
2022/01/21 03:53:04;;;;;;;21.73;1.85;;;0.80;99.90;;;;;;5016240;28;20107;-66
2022/01/21 03:55:31;;;;;;;15.73;3.28;;;0.80;99.90;;;;;;5015961;28;20388;-66
2022/01/21 03:57:58;;;;;;;17.30;2.38;;;0.70;99.90;;;;;;5016102;28;20026;-67
2022/01/21 04:00:27;;;;;;;17.85;2.38;;;0.50;99.90;;;;;;5015779;28;20080;-66
2022/01/21 04:02:53;;;;;;;11.90;1.80;;;0.40;99.90;;;;;;5016041;28;20068;-66
2022/01/21 04:05:19;;;;;;;24.13;2.40;;;0.30;99.90;;;;;;5015787;28;20018;-66
2022/01/21 04:07:44;;;;;;;8.55;1.98;;;0.30;99.90;;;;;;5015781;28;20030;-66
2022/01/21 04:10:10;;;;;;;13.68;1.90;;;0.20;99.90;;;;;;5015630;28;20018;-66
2022/01/21 04:12:36;;;;;;;10.18;1.73;;;0.20;99.90;;;;;;5015813;28;20443;-66
2022/01/21 04:15:02;;;;;;;4.10;1.45;;;0.20;99.90;;;;;;5015571;28;20050;-66
2022/01/21 04:17:27;;;;;;;26.77;2.63;;;0.00;99.90;;;;;;5015808;28;20029;-66
2022/01/21 04:19:54;;;;;;;14.95;2.25;;;0.00;99.90;;;;;;5015446;28;20069;-66
2022/01/21 04:22:19;;;;;;;21.35;4.93;;;-0.10;99.90;;;;;;5015445;28;20497;-66
2022/01/21 04:24:47;;;;;;;14.68;2.08;;;-0.10;99.90;;;;;;5015557;28;20053;-66
2022/01/21 04:27:13;;;;;;;12.20;2.13;;;-0.20;99.90;;;;;;5015542;28;20034;-66
2022/01/21 04:29:38;;;;;;;19.13;1.92;;;-0.30;99.90;;;;;;5015256;28;20065;-66
2022/01/21 04:32:04;;;;;;;9.07;2.20;;;-0.40;99.90;;;;;;5015202;28;20026;-66
2022/01/21 04:34:30;;;;;;;12.73;2.25;;;-0.50;99.90;;;;;;5014794;28;20030;-66
2022/01/21 04:36:56;;;;;;;16.98;2.25;;;-0.50;99.90;;;;;;5014394;28;20030;-66
2022/01/21 04:39:28;;;;;;;12.50;2.15;;;-0.60;99.90;;;;;;5015067;28;20026;-66
2022/01/21 04:47:17;;;;;;;12.75;1.70;;;-0.50;99.90;;;;;;5015259;28;20466;-67
2022/01/21 04:47:23;;;;;;;11.77;2.03;;;-0.50;99.90;;;;;;5015054;28;20045;-66
2022/01/21 04:49:50;;;;;;;16.05;2.38;;;-0.40;99.90;;;;;;5015249;28;20022;-66
2022/01/21 04:52:16;;;;;;;10.45;2.17;;;-0.30;99.90;;;;;;5015114;28;20042;-66
2022/01/21 04:54:42;;;;;;;11.70;2.05;;;-0.30;99.90;;;;;;5014708;28;20030;-66
2022/01/21 04:57:08;;;;;;;14.85;2.42;;;-0.20;99.90;;;;;;5014727;28;20079;-66
2022/01/21 04:59:35;;;;;;;9.88;1.40;;;-0.30;99.90;;;;;;5014684;28;20116;-67
2022/01/21 05:02:01;;;;;;;11.10;1.55;;;-0.20;99.90;;;;;;5014605;28;20534;-66
2022/01/21 05:04:26;;;;;;;12.48;1.50;;;-0.30;99.90;;;;;;5014688;28;20092;-66
2022/01/21 05:06:53;;;;;;;18.10;2.55;;;-0.40;99.90;;;;;;5014590;28;20018;-66
2022/01/21 05:09:22;;;;;;;11.32;1.80;;;-0.40;99.90;;;;;;5014826;28;20030;-66
2022/01/21 05:11:51;;;;;;;24.20;2.95;;;-0.40;99.90;;;;;;5014760;28;20474;-66
2022/01/21 05:14:23;;;;;;;19.67;1.92;;;-0.50;99.90;;;;;;5014459;28;20021;-66
2022/01/21 05:16:51;;;;;;;8.40;2.13;;;-0.60;99.90;;;;;;5014598;28;20026;-66
2022/01/21 05:19:19;;;;;;;16.52;3.75;;;-0.50;99.90;;;;;;5014337;28;20022;-67
2022/01/21 05:21:48;;;;;;;44.22;18.13;;;-0.60;99.90;;;;;;5014236;28;20485;-66
2022/01/21 05:24:16;;;;;;;28.02;11.98;;;-0.70;99.90;;;;;;5014280;28;20045;-66
2022/01/21 05:26:52;;;;;;;21.17;11.75;;;-0.80;99.90;;;;;;5014209;28;20018;-66
2022/01/21 05:29:19;;;;;;;70.85;33.60;;;-0.80;99.90;;;;;;5014141;28;20478;-66
2022/01/21 05:31:44;;;;;;;75.50;30.33;;;-0.80;99.90;;;;;;5014200;28;20030;-66
2022/01/21 05:34:10;;;;;;;71.88;25.42;;;-0.80;99.90;;;;;;5014133;28;20026;-66
2022/01/21 05:36:40;;;;;;;72.75;31.42;;;-0.70;99.90;;;;;;5014093;28;20025;-66
2022/01/21 05:39:08;;;;;;;167.00;69.57;;;-0.70;99.90;;;;;;5014332;28;20050;-66
2022/01/21 05:41:34;;;;;;;115.97;44.33;;;-0.60;99.90;;;;;;5013978;28;20097;-66
2022/01/21 05:44:15;;;;;;;36.17;14.15;;;-0.60;99.90;;;;;;5014236;28;20426;-66
2022/01/21 05:46:56;;;;;;;39.10;9.73;;;-0.70;99.90;;;;;;5013768;28;20092;-66
2022/01/21 05:49:22;;;;;;;24.48;7.13;;;-0.70;99.90;;;;;;5013934;28;20026;-66
2022/01/21 05:51:48;;;;;;;60.65;15.27;;;-0.80;99.90;;;;;;5014423;28;20026;-66
2022/01/21 05:54:14;;;;;;;238.63;75.22;;;-0.90;99.90;;;;;;5014100;28;20072;-66
2022/01/21 05:56:41;;;;;;;259.80;78.45;;;-0.80;99.90;;;;;;5013730;28;20497;-66
2022/01/21 05:59:07;;;;;;;276.63;82.15;;;-0.90;99.90;;;;;;5013772;28;20026;-66
2022/01/21 06:01:34;;;;;;;202.55;56.60;;;-0.90;99.90;;;;;;5013643;28;20037;-66
2022/01/21 06:04:01;;;;;;;252.43;73.75;;;-0.90;99.90;;;;;;5013714;28;20501;-66
2022/01/21 06:06:26;;;;;;;30.42;7.80;;;-0.80;99.90;;;;;;5013677;28;20093;-67
2022/01/21 06:08:52;;;;;;;14.93;2.47;;;-0.70;99.90;;;;;;5013640;28;20026;-66
2022/01/21 06:11:17;;;;;;;11.52;2.72;;;-0.70;99.90;;;;;;5013612;28;20026;-66
2022/01/21 06:13:46;;;;;;;12.52;2.05;;;-0.70;99.90;;;;;;5013541;28;20500;-67
2022/01/21 06:16:11;;;;;;;8.70;2.25;;;-0.70;99.90;;;;;;5014098;28;20489;-66
2022/01/21 06:18:37;;;;;;;25.30;2.05;;;-0.70;99.90;;;;;;5013489;28;20038;-67
2022/01/21 06:21:03;;;;;;;10.13;1.80;;;-0.60;99.90;;;;;;5013452;28;20084;-67
2022/01/21 06:23:28;;;;;;;4.43;1.48;;;-0.50;99.90;;;;;;5013505;28;20026;-67
2022/01/21 06:25:54;;;;;;;9.13;1.85;;;-0.50;99.90;;;;;;5013439;28;20022;-66
2022/01/21 06:28:19;;;;;;;5.32;1.85;;;-0.50;99.90;;;;;;5013389;28;20121;-67
2022/01/21 06:30:45;;;;;;;7.88;2.13;;;-0.60;99.90;;;;;;5013409;28;20031;-67
2022/01/21 06:33:10;;;;;;;6.40;1.50;;;-0.70;99.90;;;;;;5013656;28;20053;-66
2022/01/21 06:35:36;;;;;;;13.05;2.97;;;-0.70;99.90;;;;;;5013648;28;20026;-66
2022/01/21 06:38:02;;;;;;;7.47;2.45;;;-0.80;99.90;;;;;;5013317;28;20522;-66
2022/01/21 06:40:27;;;;;;;15.85;2.08;;;-0.90;99.90;;;;;;5013272;28;20092;-67
2022/01/21 06:42:53;;;;;;;14.25;2.30;;;-1.00;99.90;;;;;;5013838;28;20034;-66
2022/01/21 06:45:19;;;;;;;9.25;1.80;;;-1.10;99.90;;;;;;5013489;28;20112;-66
2022/01/21 06:47:46;;;;;;;8.75;1.40;;;-1.10;99.90;;;;;;5013220;28;20397;-66
2022/01/21 06:50:12;;;;;;;7.40;2.03;;;-1.10;99.90;;;;;;5013525;28;20029;-66
2022/01/21 06:52:37;;;;;;;8.55;1.50;;;-1.20;99.90;;;;;;5013265;28;20105;-66
2022/01/21 06:55:04;;;;;;;11.52;1.75;;;-1.30;99.90;;;;;;5013487;28;20536;-67
2022/01/21 06:57:30;;;;;;;6.53;1.23;;;-1.30;99.90;;;;;;5013191;28;20021;-67
2022/01/21 06:59:56;;;;;;;8.68;1.55;;;-1.40;99.90;;;;;;5015976;28;20105;-66
2022/01/21 07:02:22;;;;;;;19.75;3.45;;;-1.50;99.90;;;;;;5016842;28;20029;-66
2022/01/21 07:04:49;;;;;;;4.97;1.40;;;-1.50;99.90;;;;;;5016717;28;20026;-66
2022/01/21 07:07:16;;;;;;;15.35;2.38;;;-1.60;99.90;;;;;;5016767;28;20034;-66
2022/01/21 07:09:42;;;;;;;11.52;1.45;;;-1.60;99.90;;;;;;5017063;28;20034;-66
2022/01/21 07:12:08;;;;;;;12.80;1.70;;;-1.70;99.90;;;;;;5016762;28;20033;-67
2022/01/21 07:14:34;;;;;;;13.75;1.48;;;-1.80;99.90;;;;;;5017006;28;20073;-67
2022/01/21 07:17:01;;;;;;;7.45;1.58;;;-1.80;99.90;;;;;;5016593;28;20026;-67
2022/01/21 07:19:26;;;;;;;6.50;1.45;;;-1.90;99.90;;;;;;5016833;28;20478;-67
2022/01/21 07:21:52;;;;;;;11.93;2.45;;;-2.10;99.90;;;;;;5016734;28;20080;-66
2022/01/21 07:24:18;;;;;;;14.98;2.22;;;-2.20;99.90;;;;;;5016584;28;20385;-66
2022/01/21 07:26:44;;;;;;;23.00;2.28;;;-2.30;99.90;;;;;;5016709;28;20385;-66
2022/01/21 07:29:10;;;;;;;2.95;1.33;;;-2.40;99.90;;;;;;5016681;28;20022;-66
2022/01/21 07:31:35;;;;;;;8.48;1.77;;;-2.40;99.90;;;;;;5016346;28;20065;-66
2022/01/21 07:34:04;;;;;;;14.27;2.42;;;-2.50;99.90;;;;;;5016349;28;20110;-67
2022/01/21 07:36:31;;;;;;;12.02;1.70;;;-2.50;99.90;;;;;;5016261;28;20108;-66
2022/01/21 07:38:57;;;;;;;9.05;1.98;;;-2.60;99.90;;;;;;5016235;28;20030;-66
2022/01/21 07:41:23;;;;;;;15.98;2.38;;;-2.60;99.90;;;;;;5016175;28;20406;-66
2022/01/21 07:43:48;;;;;;;9.60;2.13;;;-2.50;99.90;;;;;;5016063;28;20026;-66
2022/01/21 07:46:15;;;;;;;14.25;3.40;;;-2.40;99.90;;;;;;5016584;28;20026;-66
2022/01/21 07:48:41;;;;;;;14.20;2.90;;;-2.30;99.90;;;;;;5082891;22;20041;-68
2022/01/21 07:51:06;;;;;;;11.75;2.85;;;-2.20;99.90;;;;;;5056420;28;20159;-68
2022/01/21 07:53:32;;;;;;;9.73;1.95;;;-2.10;99.90;;;;;;5055962;28;20365;-68
2022/01/21 07:55:57;;;;;;;13.25;2.15;;;-1.80;99.90;;;;;;5055946;28;20507;-68
2022/01/21 07:58:23;;;;;;;28.00;2.67;;;-1.60;99.90;;;;;;5055652;28;20029;-68
2022/01/21 08:00:49;;;;;;;10.20;1.83;;;-1.40;99.90;;;;;;5055740;28;20029;-68
2022/01/21 08:03:15;;;;;;;20.67;2.67;;;-1.20;99.90;;;;;;5056066;28;20099;-68
2022/01/21 08:05:43;;;;;;;12.65;1.98;;;-1.00;99.90;;;;;;5055727;28;20048;-68
2022/01/21 08:08:09;;;;;;;11.57;1.95;;;-0.90;99.90;;;;;;5055345;28;20051;-68
2022/01/21 08:10:34;;;;;;;17.67;2.60;;;-0.80;99.90;;;;;;5055083;28;20057;-68
2022/01/21 08:13:00;;;;;;;12.15;2.47;;;-0.70;99.90;;;;;;5055586;28;20464;-68
2022/01/21 08:15:27;;;;;;;11.32;1.65;;;-0.60;99.90;;;;;;5055312;28;20024;-68
2022/01/21 08:17:53;;;;;;;14.13;3.38;;;-0.50;99.90;;;;;;5055213;28;20112;-68
2022/01/21 08:20:19;;;;;;;16.27;2.20;;;-0.40;99.90;;;;;;5055420;28;20483;-68
2022/01/21 08:22:44;;;;;;;13.80;2.75;;;-0.30;99.90;;;;;;5055488;28;20033;-68
2022/01/21 08:25:10;;;;;;;20.42;2.88;;;-0.20;99.90;;;;;;5055080;28;20032;-68
2022/01/21 08:27:36;;;;;;;24.88;2.83;;;-0.10;99.90;;;;;;5054985;28;20020;-68
2022/01/21 08:30:04;;;;;;;13.68;2.28;;;0.10;99.90;;;;;;5055305;28;20098;-68
2022/01/21 08:32:30;;;;;;;16.05;2.25;;;0.20;99.90;;;;;;5054903;28;20021;-68
2022/01/21 08:34:55;;;;;;;11.20;2.35;;;0.30;99.90;;;;;;5055232;28;20027;-68
2022/01/21 08:37:21;;;;;;;12.35;2.75;;;0.40;99.90;;;;;;5054804;28;20033;-68
2022/01/21 08:39:47;;;;;;;12.43;2.47;;;0.50;99.90;;;;;;5055086;28;20127;-68
2022/01/21 08:42:13;;;;;;;13.05;1.85;;;0.50;99.90;;;;;;5054760;28;20033;-68
2022/01/21 08:44:38;;;;;;;17.48;2.35;;;0.50;99.90;;;;;;5054697;28;20033;-69
2022/01/21 08:47:05;;;;;;;30.42;3.05;;;0.60;99.90;;;;;;5054611;28;20027;-68
2022/01/21 08:49:30;;;;;;;11.73;2.33;;;0.70;99.90;;;;;;5054559;28;20032;-68
2022/01/21 08:51:57;;;;;;;8.90;1.95;;;0.90;99.90;;;;;;5054767;28;20027;-68
2022/01/21 08:54:25;;;;;;;9.93;2.05;;;0.90;99.90;;;;;;5054556;28;20103;-68
2022/01/21 08:56:52;;;;;;;6.28;2.05;;;1.00;99.90;;;;;;5054766;28;20036;-68
2022/01/21 08:59:19;;;;;;;14.95;2.25;;;1.10;99.90;;;;;;5054365;28;20036;-68
2022/01/21 09:01:46;;;;;;;16.98;2.47;;;1.10;99.90;;;;;;5054478;28;20396;-68
2022/01/21 09:04:12;;;;;;;13.00;2.33;;;1.20;99.90;;;;;;5054582;28;20461;-68
2022/01/21 09:06:37;;;;;;;15.88;1.98;;;1.20;99.90;;;;;;5054826;28;20377;-68
2022/01/21 09:09:05;;;;;;;13.35;2.35;;;1.30;99.90;;;;;;5054224;28;20025;-68
2022/01/21 09:11:31;;;;;;;20.50;3.05;;;1.40;99.90;;;;;;5036600;28;20428;-68
2022/01/21 09:13:57;;;;;;;10.82;2.65;;;1.50;99.90;;;;;;5054298;28;20028;-68
2022/01/21 09:16:24;;;;;;;17.83;2.22;;;1.60;99.90;;;;;;5054397;28;20036;-68
2022/01/21 09:18:57;;;;;;;18.90;2.85;;;1.70;99.90;;;;;;5054084;28;20029;-68
2022/01/21 09:21:25;;;;;;;;;;;1.90;99.90;;;;;;5054219;28;20032;-68
2022/01/21 09:23:52;;;;;;;8.70;2.47;;;2.00;99.90;;;;;;5053975;28;19904;-68
2022/01/21 09:26:19;;;;;;;12.02;2.13;;;2.10;99.90;;;;;;5054204;28;20035;-68
2022/01/21 09:28:45;;;;;;;30.05;3.55;;;2.30;99.90;;;;;;5054090;28;20086;-68
2022/01/21 09:31:11;;;;;;;14.25;2.42;;;2.40;99.90;;;;;;5053884;28;20040;-68
2022/01/21 09:33:38;;;;;;;42.58;3.80;;;2.50;99.90;;;;;;5053805;28;20439;-68
2022/01/21 09:36:04;;;;;;;25.25;3.20;;;2.50;99.90;;;;;;5054032;28;20029;-68
2022/01/21 09:38:30;;;;;;;26.35;2.40;;;2.60;99.90;;;;;;5054097;28;20389;-69
2022/01/21 09:40:56;;;;;;;31.20;2.80;;;2.70;99.90;;;;;;5053634;28;20024;-69
2022/01/21 09:43:23;;;;;;;24.30;4.10;;;2.80;99.90;;;;;;5053678;28;20021;-69
2022/01/21 09:45:52;;;;;;;22.98;3.20;;;3.00;99.90;;;;;;5053618;28;20044;-68
2022/01/21 09:48:28;;;;;;;34.92;3.85;;;3.10;99.90;;;;;;5053379;28;20099;-68
2022/01/21 09:50:57;;;;;;;23.38;3.35;;;3.20;99.90;;;;;;5053604;28;20017;-68
2022/01/21 09:53:29;;;;;;;14.45;2.65;;;3.30;99.90;;;;;;5053926;28;20024;-68
2022/01/21 09:55:56;;;;;;;36.08;3.90;;;3.30;99.90;;;;;;5053458;28;20079;-68
2022/01/21 09:58:22;;;;;;;27.42;3.85;;;3.30;99.90;;;;;;5053361;28;20044;-68
2022/01/21 10:00:48;;;;;;;12.27;3.35;;;3.40;99.90;;;;;;5053627;28;20100;-68
2022/01/21 10:03:15;;;;;;;30.08;3.75;;;3.40;99.90;;;;;;5053416;28;20075;-68
2022/01/21 10:05:46;;;;;;;24.33;4.07;;;3.50;99.90;;;;;;5053560;28;20024;-68
2022/01/21 10:08:13;;;;;;;38.97;4.43;;;3.70;99.90;;;;;;5053582;28;20465;-68
2022/01/21 10:10:41;;;;;;;29.95;4.45;;;3.70;99.90;;;;;;5053513;28;20040;-68
2022/01/21 10:13:08;;;;;;;32.63;4.60;;;3.70;99.90;;;;;;5053260;28;20489;-68
2022/01/21 10:15:34;;;;;;;40.60;4.60;;;3.80;99.90;;;;;;5053258;28;20029;-68
2022/01/21 10:18:04;;;;;;;36.30;5.22;;;3.90;99.90;;;;;;5053173;28;20024;-68
2022/01/21 10:20:29;;;;;;;25.25;5.30;;;4.00;99.90;;;;;;5053125;28;20118;-69
2022/01/21 10:23:05;;;;;;;27.27;3.53;;;4.10;99.90;;;;;;5053380;28;20485;-69
2022/01/21 10:25:33;;;;;;;24.30;3.20;;;4.30;99.90;;;;;;5053190;28;20021;-69
2022/01/21 10:28:19;;;;;;;33.85;4.72;;;4.40;99.90;;;;;;5053062;28;20028;-69
2022/01/21 10:30:48;;;;;;;30.13;3.25;;;4.50;99.90;;;;;;5053322;28;20025;-69
2022/01/21 10:33:26;;;;;;;35.25;3.78;;;4.60;99.90;;;;;;5055007;28;20017;-69
2022/01/21 10:36:15;;;;;;;27.30;3.33;;;4.60;99.90;;;;;;5057199;28;20033;-68
2022/01/21 10:38:49;;;;;;;29.48;3.53;;;4.70;99.90;;;;;;5057009;28;20037;-68
2022/01/21 10:41:18;;;;;;;30.23;4.13;;;4.80;99.90;;;;;;5057245;28;20021;-68
2022/01/21 10:44:01;;;;;;;38.72;4.30;;;4.80;99.90;;;;;;5057017;28;20033;-68
2022/01/21 10:46:26;;;;;;;28.50;3.08;;;4.90;99.90;;;;;;5057488;28;20048;-68
2022/01/21 10:49:03;;;;;;;35.67;4.55;;;5.00;99.90;;;;;;5056666;28;20040;-69
2022/01/21 10:51:33;;;;;;;24.63;3.58;;;5.10;99.90;;;;;;5057438;28;20024;-69
2022/01/21 10:54:15;;;;;;;25.20;4.28;;;5.10;99.90;;;;;;5056814;28;20029;-69
2022/01/21 10:57:00;;;;;;;27.75;5.00;;;5.20;99.90;;;;;;5056815;28;20566;-69
2022/01/21 10:59:58;;;;;;;51.65;9.57;;;5.20;99.90;;;;;;5057237;28;20036;-69
2022/01/21 11:02:36;;;;;;;45.90;8.82;;;5.10;99.90;;;;;;5056609;28;20025;-69
2022/01/21 11:05:11;;;;;;;28.25;5.35;;;5.10;99.90;;;;;;5056787;28;20025;-69
2022/01/21 11:07:52;;;;;;;21.77;3.38;;;5.00;99.90;;;;;;5057072;28;20057;-68
2022/01/21 11:10:36;;;;;;;25.35;3.20;;;4.90;99.90;;;;;;5056848;28;20032;-68
2022/01/21 11:13:18;;;;;;;33.45;7.30;;;4.80;99.90;;;;;;5056461;28;20587;-68
2022/01/21 11:15:49;;;;;;;36.67;5.40;;;4.80;99.90;;;;;;5056471;28;20043;-68
2022/01/21 11:18:18;;;;;;;22.40;3.90;;;4.70;99.90;;;;;;5056637;28;20025;-69
2022/01/21 11:20:48;;;;;;;34.85;4.53;;;4.60;99.90;;;;;;5056244;28;20128;-69
2022/01/21 11:23:15;;;;;;;25.83;4.18;;;4.60;99.90;;;;;;5056574;28;20484;-68
2022/01/21 11:25:48;;;;;;;26.85;3.63;;;4.60;99.90;;;;;;5056473;28;20427;-70
2022/01/21 11:28:16;;;;;;;26.00;5.07;;;4.60;99.90;;;;;;5056668;28;20025;-70
2022/01/21 11:30:43;;;;;;;32.60;4.47;;;4.80;99.90;;;;;;5056371;28;20025;-70
2022/01/21 11:33:12;;;;;;;35.90;4.88;;;5.00;99.90;;;;;;5056080;28;20439;-68
2022/01/21 11:35:38;;;;;;;30.85;4.57;;;5.00;99.90;;;;;;5056343;28;20021;-68
2022/01/21 11:38:10;;;;;;;20.30;4.45;;;5.10;99.90;;;;;;5055964;28;20028;-69
2022/01/21 11:40:36;;;;;;;34.50;5.95;;;5.20;99.90;;;;;;5056159;28;20041;-69
2022/01/21 11:43:04;;;;;;;28.42;3.13;;;5.30;99.90;;;;;;5055929;28;20032;-69
2022/01/21 11:50:47;;;;;;;40.78;4.63;;;5.20;99.90;;;;;;5056094;28;20029;-69
2022/01/21 11:53:13;;;;;;;39.85;4.10;;;5.10;99.90;;;;;;5055708;28;20392;-69
2022/01/21 11:55:47;;;;;;;41.28;5.10;;;5.10;99.90;;;;;;5055631;28;20021;-69
2022/01/21 11:58:20;;;;;;;;;;;5.10;99.90;;;;;;5056188;28;20115;-69
2022/01/21 12:00:48;;;;;;;40.88;4.10;;;5.10;99.90;;;;;;5055470;28;20432;-69
2022/01/21 12:03:15;;;;;;;54.05;5.50;;;5.10;99.90;;;;;;5055589;28;20036;-68
2022/01/21 12:05:41;;;;;;;29.58;4.20;;;5.10;99.90;;;;;;5055483;28;20112;-68
2022/01/21 12:08:07;;;;;;;57.38;5.63;;;5.20;99.90;;;;;;5055515;28;20118;-68
2022/01/21 12:10:43;;;;;;;42.60;4.72;;;5.20;99.90;;;;;;5055703;28;20025;-68
2022/01/21 12:13:21;;;;;;;29.83;3.88;;;5.20;99.90;;;;;;5055705;28;20025;-68
2022/01/21 12:18:54;;;;;;;38.88;5.70;;;5.30;99.90;;;;;;5055554;28;20028;-69
2022/01/21 12:21:26;;;;;;;33.28;4.28;;;5.30;99.90;;;;;;5055192;28;20070;-69
2022/01/21 12:23:52;;;;;;;43.03;3.83;;;5.40;99.90;;;;;;5055175;28;20025;-68
2022/01/21 12:26:23;;;;;;;35.50;3.65;;;5.50;99.90;;;;;;5055415;28;20733;-68
2022/01/21 12:28:52;;;;;;;20.75;3.00;;;5.70;99.90;;;;;;5055121;28;20017;-68
2022/01/21 12:31:19;;;;;;;28.15;3.33;;;5.80;99.90;;;;;;5055222;28;20040;-68
2022/01/21 12:36:29;;;;;;;28.38;3.17;;;5.90;99.90;;;;;;5054893;28;20392;-68
2022/01/21 12:41:24;;;;;;;41.60;4.90;;;5.80;99.90;;;;;;5055063;28;20427;-69
2022/01/21 12:44:01;;;;;;;37.63;4.78;;;5.80;99.90;;;;;;5055036;28;20021;-68
2022/01/21 12:46:31;;;;;;;32.63;4.32;;;5.70;99.90;;;;;;5055293;28;20036;-68
2022/01/21 12:48:59;;;;;;;51.05;4.63;;;5.60;99.90;;;;;;5054581;28;20035;-69
2022/01/21 12:56:58;;;;;;;24.90;3.55;;;5.60;99.90;;;;;;5053891;28;20048;-68
2022/01/21 12:59:28;;;;;;;21.20;4.05;;;5.60;99.90;;;;;;5037056;28;20416;-68
2022/01/21 13:02:00;;;;;;;40.95;9.52;;;5.60;99.90;;;;;;5054655;28;20420;-68
2022/01/21 13:04:43;;;;;;;33.97;4.40;;;5.50;99.90;;;;;;5054945;28;20019;-68
2022/01/21 13:07:25;;;;;;;;;;;5.50;99.90;;;;;;5054714;28;20043;-69
2022/01/21 13:10:02;;;;;;;41.13;4.53;;;5.50;99.90;;;;;;5054557;28;19901;-68
2022/01/21 13:13:00;;;;;;;43.17;6.65;;;5.50;99.90;;;;;;5054519;28;20104;-68
2022/01/21 13:15:37;;;;;;;56.78;8.70;;;5.50;99.90;;;;;;5054339;28;20032;-68
2022/01/21 13:18:10;;;;;;;37.20;7.93;;;5.50;99.90;;;;;;5071506;28;20379;-67
2022/01/21 13:20:38;;;;;;;52.05;6.82;;;5.40;99.90;;;;;;5070749;28;20106;-67
2022/01/21 13:23:04;;;;;;;23.42;4.70;;;5.40;99.90;;;;;;5070679;28;20013;-67
2022/01/21 13:25:32;;;;;;;52.67;8.13;;;5.40;99.90;;;;;;5070717;28;20023;-67
2022/01/21 13:28:03;;;;;;;30.58;4.40;;;5.40;99.90;;;;;;5070659;28;20086;-67
2022/01/21 13:30:32;;;;;;;43.60;5.07;;;5.40;99.90;;;;;;5070824;28;20495;-67
2022/01/21 13:33:09;;;;;;;24.52;4.43;;;5.30;99.90;;;;;;5070670;28;20025;-67
2022/01/21 13:35:38;;;;;;;26.42;4.03;;;5.30;99.90;;;;;;5070533;28;20023;-67
2022/01/21 13:38:11;;;;;;;29.25;5.15;;;5.30;99.90;;;;;;5070292;28;20021;-67
2022/01/21 13:40:50;;;;;;;29.52;4.70;;;5.30;99.90;;;;;;5070635;28;20013;-67
2022/01/21 13:43:21;;;;;;;22.27;2.10;;;5.20;99.90;;;;;;5070342;28;20031;-68
2022/01/21 13:46:05;;;;;;;32.05;2.85;;;5.20;99.90;;;;;;5070270;28;20028;-68
2022/01/21 13:48:32;;;;;;;29.08;2.55;;;5.10;99.90;;;;;;5070924;28;20017;-70
2022/01/21 13:51:01;;;;;;;31.25;3.40;;;5.00;99.90;;;;;;5070114;28;20078;-70